MKJS/MBJ METAR and TAF weather

Enter ICAO airport designator
Station Type Date Time Source
MKJS METAR 2020/09/20 12:00 UTC NOAA

MKJS 201200Z 14004KT 9999 FEW024 28/24 Q1011


Station Type Date Time Source
MKJS Decoded METAR 2020/09/20 12:00 UTC NOAA

Montego Bay / Sangster, Jamaica (MKJS) 18-30N 077-55W 8M
Sep 20, 2020 - 08:00 AM EDT / 2020.09.20 1200 UTC
Wind: from the SE (140 degrees) at 5 MPH (4 KT):0
Visibility: greater than 7 mile(s):0
Sky conditions: mostly clear
Temperature: 82 F (28 C)
Dew Point: 75 F (24 C)
Relative Humidity: 78%
Pressure (altimeter): 29.85 in. Hg (1011 hPa)
ob: MKJS 201200Z 14004KT 9999 FEW024 28/24 Q1011
cycle: 12

Station Type Date Time Source
MKJS TAF 2020/09/20 12:15 UTC NOAA

TAF MKJS 201115Z 2012/2112 VRB03KT 9999 FEW020 FEW022CB
BECMG 2014/2016 05012KT PROB30
TEMPO 2018/2024 TS SCT018 FEW020CB
BECMG 2101/2103 VRB02KT

Example: see airport list